createdAt,value
2023-04-05T00:01:58.688Z,33.94
2023-04-05T00:04:25.695Z,34.91
2023-04-05T00:06:53.319Z,36.95
2023-04-05T00:09:21.184Z,39.82
2023-04-05T00:11:48.749Z,39.66
2023-04-05T00:14:15.781Z,34.69
2023-04-05T00:16:43.172Z,34.57
2023-04-05T00:19:13.028Z,36.04
2023-04-05T00:21:40.695Z,39.15
2023-04-05T00:24:10.031Z,39.43
2023-04-05T00:26:36.811Z,40.59
2023-04-05T00:29:03.900Z,35.86
2023-04-05T00:31:31.039Z,37.64
2023-04-05T00:33:58.246Z,39.87
2023-04-05T00:36:26.386Z,41.03
2023-04-05T00:38:55.538Z,41.79
2023-04-05T00:41:22.520Z,40.46
2023-04-05T00:43:49.630Z,36.53
2023-04-05T00:46:17.017Z,35.95
2023-04-05T00:48:44.244Z,37.86
2023-04-05T00:51:11.818Z,37.55
2023-04-05T00:53:40.149Z,35.93
2023-04-05T00:56:08.522Z,38.95
2023-04-05T00:58:37.068Z,41.57
2023-04-05T01:01:14.073Z,40.15
2023-04-05T01:03:54.460Z,38.13
2023-04-05T01:06:34.428Z,38.44
2023-04-05T01:09:06.576Z,38.73
2023-04-05T01:11:35.509Z,39.06
2023-04-05T01:14:02.638Z,40.68
2023-04-05T01:16:29.877Z,40.02
2023-04-05T01:18:57.108Z,35.37
2023-04-05T01:21:39.516Z,37.74
2023-04-05T01:24:32.440Z,35.32
2023-04-05T01:27:05.206Z,37.91
2023-04-05T01:29:59.570Z,34.77
2023-04-05T01:32:29.256Z,39.78
2023-04-05T01:35:45.055Z,37.83
2023-04-05T01:38:18.171Z,37.36
2023-04-05T01:40:45.635Z,36.74
2023-04-05T01:43:14.356Z,37.57
2023-04-05T01:45:42.516Z,36.58
2023-04-05T01:48:10.872Z,35.80
2023-04-05T01:50:37.993Z,37.75
2023-04-05T01:53:06.821Z,35.66
2023-04-05T01:55:33.738Z,36.08
2023-04-05T01:58:00.743Z,36.19
2023-04-05T02:00:28.252Z,34.55
2023-04-05T02:02:55.744Z,35.92
2023-04-05T02:05:22.596Z,36.93
2023-04-05T02:07:49.586Z,37.85
2023-04-05T02:10:16.584Z,38.35
2023-04-05T02:12:43.637Z,35.66
2023-04-05T02:15:10.944Z,37.64
2023-04-05T02:17:46.224Z,37.58
2023-04-05T02:20:14.716Z,37.83
2023-04-05T02:22:45.183Z,36.29
2023-04-05T02:25:13.286Z,35.58
2023-04-05T02:27:41.404Z,34.64
2023-04-05T02:30:08.941Z,34.17
2023-04-05T02:32:36.308Z,35.39
2023-04-05T02:35:03.333Z,34.01
2023-04-05T02:37:30.499Z,34.95
2023-04-05T02:39:57.241Z,35.82
2023-04-05T02:42:24.099Z,35.50
2023-04-05T02:44:52.325Z,33.89
2023-04-05T02:47:23.126Z,33.85
2023-04-05T02:49:57.640Z,36.58
2023-04-05T02:52:26.756Z,36.81
2023-04-05T02:54:53.684Z,35.87
2023-04-05T02:57:26.384Z,34.02
2023-04-05T03:00:00.783Z,34.54
2023-04-05T03:02:30.096Z,34.29
2023-04-05T03:04:57.407Z,33.99
2023-04-05T03:07:25.806Z,35.40
2023-04-05T03:09:54.265Z,33.62
2023-04-05T03:12:21.647Z,33.44
2023-04-05T03:14:49.324Z,33.05
2023-04-05T03:17:20.957Z,33.70
2023-04-05T03:19:57.460Z,33.43
2023-04-05T03:22:27.339Z,33.61
2023-04-05T03:24:57.432Z,33.72
2023-04-05T03:27:24.661Z,33.04
2023-04-05T03:30:05.045Z,32.76
2023-04-05T03:32:36.520Z,33.74
2023-04-05T03:35:13.295Z,33.58
2023-04-05T03:37:44.440Z,32.82
2023-04-05T03:40:13.147Z,38.26
2023-04-05T03:42:39.926Z,35.26
2023-04-05T03:45:07.700Z,35.48
2023-04-05T03:47:35.079Z,35.20
2023-04-05T03:50:06.151Z,37.25
2023-04-05T03:52:32.923Z,37.24
2023-04-05T03:55:01.252Z,35.48
2023-04-05T03:57:31.244Z,39.75
2023-04-05T04:00:14.517Z,36.86
2023-04-05T04:02:46.281Z,36.87
2023-04-05T04:05:18.251Z,36.51
2023-04-05T04:07:49.188Z,37.62
2023-04-05T04:10:20.397Z,35.84
2023-04-05T04:12:51.420Z,33.92
2023-04-05T04:15:22.425Z,34.02
2023-04-05T04:18:08.684Z,33.28
2023-04-05T04:20:47.922Z,39.73
2023-04-05T04:23:34.951Z,34.38
2023-04-05T04:26:37.536Z,35.93
2023-04-05T04:29:19.485Z,35.36
2023-04-05T04:31:58.526Z,34.99
2023-04-05T04:34:56.440Z,35.49
2023-04-05T04:37:38.872Z,36.51
2023-04-05T04:40:39.214Z,34.60
2023-04-05T04:43:27.616Z,34.05
2023-04-05T04:46:43.361Z,34.71
2023-04-05T04:49:28.382Z,33.27
2023-04-05T04:51:55.510Z,33.27
2023-04-05T04:54:23.651Z,34.69
2023-04-05T04:56:50.561Z,35.56
2023-04-05T04:59:17.403Z,38.17
2023-04-05T05:01:47.257Z,36.66
2023-04-05T05:04:14.215Z,33.75
2023-04-05T05:06:42.215Z,37.32
2023-04-05T05:09:09.022Z,41.53
2023-04-05T05:11:45.034Z,39.56
2023-04-05T05:14:13.122Z,38.00
2023-04-05T05:16:39.898Z,38.12
2023-04-05T05:19:07.117Z,39.71
2023-04-05T05:21:50.562Z,38.29
2023-04-05T05:24:17.416Z,36.79
2023-04-05T05:26:44.309Z,34.48
2023-04-05T05:29:11.891Z,36.31
2023-04-05T05:31:42.984Z,37.34
2023-04-05T05:34:09.836Z,34.76
2023-04-05T05:36:38.640Z,34.08
2023-04-05T05:39:06.058Z,33.66
2023-04-05T05:41:32.864Z,33.23
2023-04-05T05:43:59.720Z,30.76
2023-04-05T05:46:27.256Z,30.20
2023-04-05T05:48:54.094Z,35.62
2023-04-05T05:51:20.881Z,35.36
2023-04-05T05:53:48.141Z,35.70
2023-04-05T05:56:14.920Z,33.98
2023-04-05T05:58:42.313Z,33.56
2023-04-05T06:01:12.550Z,34.18
2023-04-05T06:03:39.517Z,36.05
2023-04-05T06:06:08.570Z,33.38
2023-04-05T06:08:35.431Z,33.57
2023-04-05T06:11:02.520Z,34.08
2023-04-05T06:13:29.374Z,32.53
2023-04-05T06:15:56.188Z,33.82
2023-04-05T06:18:23.856Z,32.00
2023-04-05T06:20:50.685Z,33.27
2023-04-05T06:23:17.545Z,32.30
2023-04-05T06:25:44.537Z,33.52
2023-04-05T06:28:11.272Z,31.78
2023-04-05T06:30:39.335Z,31.82
2023-04-05T06:33:06.408Z,31.64
2023-04-05T06:35:33.267Z,30.56
2023-04-05T06:38:00.227Z,31.38
2023-04-05T06:40:27.611Z,33.50
2023-04-05T06:42:54.815Z,31.07
2023-04-05T06:45:26.710Z,31.99
2023-04-05T06:47:54.237Z,32.34
2023-04-05T06:50:21.308Z,32.01
2023-04-05T06:52:48.056Z,30.36
2023-04-05T06:55:14.877Z,29.94
2023-04-05T06:57:41.635Z,30.90
2023-04-05T07:00:11.681Z,31.80
2023-04-05T07:02:39.575Z,29.84
2023-04-05T07:05:06.734Z,31.27
2023-04-05T07:07:33.523Z,29.89
2023-04-05T07:10:00.583Z,30.21
2023-04-05T07:12:27.935Z,30.09
2023-04-05T07:14:55.043Z,29.54
2023-04-05T07:17:22.126Z,28.78
2023-04-05T07:19:49.026Z,28.70
2023-04-05T07:22:15.731Z,28.59
2023-04-05T07:24:44.620Z,29.03
2023-04-05T07:27:11.614Z,29.36
2023-04-05T07:29:40.787Z,28.27
2023-04-05T07:32:08.028Z,27.71
2023-04-05T07:34:35.925Z,28.12
2023-04-05T07:37:06.819Z,28.35
2023-04-05T07:39:33.884Z,28.77
2023-04-05T07:42:00.614Z,27.54
2023-04-05T07:44:27.665Z,29.75
2023-04-05T07:46:54.703Z,29.50
2023-04-05T07:49:28.390Z,28.37
2023-04-05T07:51:56.562Z,27.41
2023-04-05T07:54:24.093Z,26.07
2023-04-05T07:56:52.299Z,29.15
2023-04-05T07:59:19.154Z,28.10
2023-04-05T08:01:46.041Z,28.37
2023-04-05T08:04:13.371Z,25.92
2023-04-05T08:06:40.241Z,25.91
2023-04-05T08:09:09.045Z,26.94
2023-04-05T08:11:36.084Z,27.91
2023-04-05T08:14:03.253Z,28.88
2023-04-05T08:16:30.145Z,26.54
2023-04-05T08:18:57.025Z,27.17
2023-04-05T08:21:23.854Z,26.20
2023-04-05T08:23:50.868Z,25.61
2023-04-05T08:26:18.171Z,24.89
2023-04-05T08:28:45.225Z,25.70
2023-04-05T08:31:13.742Z,24.70
2023-04-05T08:33:41.014Z,23.73
2023-04-05T08:36:09.254Z,24.06
2023-04-05T08:38:36.877Z,24.52
2023-04-05T08:41:23.097Z,23.17
2023-04-05T08:43:52.666Z,25.43
2023-04-05T08:46:21.235Z,24.17
2023-04-05T08:48:48.317Z,22.68
2023-04-05T08:51:21.975Z,22.09
2023-04-05T08:53:49.456Z,24.37
2023-04-05T08:56:22.458Z,24.12
2023-04-05T08:59:00.957Z,22.18
2023-04-05T09:01:31.063Z,24.76
2023-04-05T09:04:01.715Z,22.50
2023-04-05T09:06:29.220Z,23.89
2023-04-05T09:08:59.185Z,23.11
2023-04-05T09:11:26.320Z,23.94
2023-04-05T09:13:53.251Z,21.82
2023-04-05T09:16:20.641Z,23.38
2023-04-05T09:18:47.621Z,22.54
2023-04-05T09:21:16.345Z,23.15
2023-04-05T09:23:56.410Z,22.22
2023-04-05T09:26:25.295Z,21.50
2023-04-05T09:28:56.762Z,21.15
2023-04-05T09:31:33.097Z,20.34
2023-04-05T09:34:03.399Z,21.99
2023-04-05T09:36:33.477Z,20.29
2023-04-05T09:39:06.823Z,19.90
2023-04-05T09:41:35.289Z,21.31
2023-04-05T09:44:02.900Z,21.01
2023-04-05T09:46:38.456Z,22.37
2023-04-05T09:49:08.019Z,20.68
2023-04-05T09:51:36.590Z,20.97
2023-04-05T09:54:10.795Z,21.21
2023-04-05T09:56:40.033Z,21.37
2023-04-05T09:59:10.623Z,20.58
2023-04-05T10:01:41.214Z,19.82
2023-04-05T10:04:08.941Z,19.24
2023-04-05T10:06:39.771Z,21.77
2023-04-05T10:09:08.396Z,17.51
2023-04-05T10:11:37.197Z,21.90
2023-04-05T10:14:06.026Z,21.12
2023-04-05T10:16:37.326Z,21.95
2023-04-05T10:19:11.862Z,21.36
2023-04-05T10:21:44.218Z,22.26
2023-04-05T10:24:17.444Z,22.83
2023-04-05T10:27:04.504Z,18.52
2023-04-05T10:29:45.667Z,21.68
2023-04-05T10:32:31.689Z,18.82
2023-04-05T10:35:20.565Z,19.43
2023-04-05T10:37:59.757Z,18.38
2023-04-05T10:40:32.149Z,16.15
2023-04-05T10:43:00.886Z,17.19
2023-04-05T10:45:28.753Z,19.62
2023-04-05T10:48:31.357Z,19.39
2023-04-05T10:50:58.832Z,18.42
2023-04-05T10:53:27.314Z,17.05
2023-04-05T10:55:56.070Z,20.58
2023-04-05T10:58:23.756Z,22.72
2023-04-05T11:00:52.295Z,18.11
2023-04-05T11:03:47.938Z,15.87
2023-04-05T11:06:22.896Z,16.96
2023-04-05T11:08:55.055Z,17.50
2023-04-05T11:11:24.086Z,17.02
2023-04-05T11:13:56.041Z,16.52
2023-04-05T11:16:24.544Z,18.12
2023-04-05T11:18:52.475Z,18.82
2023-04-05T11:21:26.336Z,17.57
2023-04-05T11:24:12.118Z,17.42
2023-04-05T11:26:45.424Z,16.21
2023-04-05T11:29:12.178Z,16.57
2023-04-05T11:32:00.495Z,14.81
2023-04-05T11:34:27.231Z,16.21
2023-04-05T11:36:54.273Z,15.33
2023-04-05T11:39:23.882Z,14.12
2023-04-05T11:42:03.748Z,14.44
2023-04-05T11:44:41.330Z,17.47
2023-04-05T11:47:09.420Z,17.35
2023-04-05T11:49:36.451Z,14.95
2023-04-05T11:52:20.856Z,15.95
2023-04-05T11:54:49.130Z,14.64
2023-04-05T11:57:23.220Z,16.23
2023-04-05T11:59:52.227Z,14.54
2023-04-05T12:02:20.008Z,15.88
2023-04-05T12:04:55.578Z,15.48
2023-04-05T12:07:26.389Z,17.63
2023-04-05T12:10:20.023Z,16.40
2023-04-05T12:12:49.296Z,13.77
2023-04-05T12:15:19.464Z,16.71
2023-04-05T12:17:50.950Z,13.40
2023-04-05T12:20:23.883Z,15.38
2023-04-05T12:22:53.337Z,14.53
2023-04-05T12:25:21.053Z,14.25
2023-04-05T12:27:48.215Z,15.49
2023-04-05T12:30:19.626Z,17.09
2023-04-05T12:32:53.294Z,16.37
2023-04-05T12:35:32.667Z,15.30
2023-04-05T12:38:02.295Z,15.69
2023-04-05T12:40:31.091Z,15.79
2023-04-05T12:43:07.666Z,14.10
2023-04-05T12:45:40.607Z,15.59
2023-04-05T12:48:34.853Z,15.34
2023-04-05T12:51:05.083Z,13.73
2023-04-05T12:53:33.489Z,15.26
2023-04-05T12:56:01.645Z,14.78
2023-04-05T12:58:37.024Z,16.98
2023-04-05T13:01:04.660Z,15.03
2023-04-05T13:03:32.615Z,15.25
2023-04-05T13:05:59.711Z,16.20
2023-04-05T13:08:27.745Z,16.21
2023-04-05T13:10:57.208Z,16.36
2023-04-05T13:13:25.419Z,17.09
2023-04-05T13:15:52.550Z,14.90
2023-04-05T13:18:20.046Z,15.40
2023-04-05T13:20:47.574Z,16.03
2023-04-05T13:23:14.409Z,15.60
2023-04-05T13:25:43.509Z,14.47
2023-04-05T13:28:10.732Z,16.43
2023-04-05T13:30:37.993Z,14.90
2023-04-05T13:33:05.238Z,17.66
2023-04-05T13:35:33.156Z,16.93
2023-04-05T13:38:04.226Z,18.82
2023-04-05T13:40:32.660Z,18.96
2023-04-05T13:42:59.952Z,17.13
2023-04-05T13:45:28.134Z,17.84
2023-04-05T13:47:55.656Z,19.14
2023-04-05T13:50:22.603Z,18.11
2023-04-05T13:52:49.370Z,16.83
2023-04-05T13:55:16.817Z,16.65
2023-04-05T13:57:43.630Z,15.89
2023-04-05T14:00:11.036Z,16.80
2023-04-05T14:02:41.172Z,15.81
2023-04-05T14:05:08.966Z,15.94
2023-04-05T14:07:36.115Z,17.57
2023-04-05T14:10:03.901Z,18.02
2023-04-05T14:12:32.135Z,16.39
2023-04-05T14:15:00.363Z,17.14
2023-04-05T14:17:27.347Z,17.91
2023-04-05T14:19:54.222Z,18.30
2023-04-05T14:22:21.710Z,17.06
2023-04-05T14:24:48.812Z,15.94
2023-04-05T14:27:15.649Z,19.45
2023-04-05T14:29:44.212Z,18.28
2023-04-05T14:32:11.184Z,16.58
2023-04-05T14:34:38.051Z,16.88
2023-04-05T14:37:06.757Z,16.72
2023-04-05T14:39:33.792Z,18.64
2023-04-05T14:42:00.971Z,19.08
2023-04-05T14:44:28.032Z,17.15
2023-04-05T14:46:54.890Z,17.85
2023-04-05T14:49:22.033Z,18.13
2023-04-05T14:51:48.968Z,19.28
2023-04-05T14:54:15.977Z,19.49
2023-04-05T14:56:42.915Z,20.67
2023-04-05T14:59:09.850Z,19.77
2023-04-05T15:01:37.804Z,19.62
2023-04-05T15:04:04.747Z,20.90
2023-04-05T15:06:32.372Z,19.40
2023-04-05T15:08:59.664Z,20.73
2023-04-05T15:11:27.199Z,21.09
2023-04-05T15:13:54.035Z,19.05
2023-04-05T15:16:21.024Z,20.24
2023-04-05T15:18:48.666Z,17.37
2023-04-05T15:21:15.690Z,18.02
2023-04-05T15:23:42.828Z,17.81
2023-04-05T15:26:09.645Z,18.17
2023-04-05T15:28:36.856Z,17.30
2023-04-05T15:31:05.540Z,17.66
2023-04-05T15:33:32.788Z,16.78
2023-04-05T15:35:59.747Z,19.49
2023-04-05T15:38:27.631Z,18.96
2023-04-05T15:40:54.643Z,20.81
2023-04-05T15:43:22.371Z,20.32
2023-04-05T15:45:49.380Z,20.69
2023-04-05T15:48:16.467Z,22.04
2023-04-05T15:50:43.550Z,22.39
2023-04-05T15:53:10.561Z,21.70
2023-04-05T15:55:37.674Z,21.23
2023-04-05T15:58:04.629Z,21.75
2023-04-05T16:00:33.150Z,21.31
2023-04-05T16:03:00.940Z,21.69
2023-04-05T16:05:28.296Z,21.80
2023-04-05T16:07:55.685Z,20.33
2023-04-05T16:10:22.911Z,21.71
2023-04-05T16:12:49.952Z,21.55
2023-04-05T16:15:17.025Z,20.57
2023-04-05T16:17:44.870Z,20.96
2023-04-05T16:20:12.294Z,23.24
2023-04-05T16:22:39.160Z,22.98
2023-04-05T16:25:06.570Z,23.82
2023-04-05T16:27:34.374Z,23.59
2023-04-05T16:30:01.337Z,23.32
2023-04-05T16:32:28.539Z,22.95
2023-04-05T16:34:55.579Z,22.09
2023-04-05T16:37:22.473Z,22.77
2023-04-05T16:39:50.017Z,23.50
2023-04-05T16:42:16.902Z,23.95
2023-04-05T16:44:43.864Z,23.94
2023-04-05T16:47:11.060Z,23.80
2023-04-05T16:49:38.105Z,23.22
2023-04-05T16:52:04.997Z,23.00
2023-04-05T16:54:32.279Z,22.44
2023-04-05T16:56:59.404Z,22.49
2023-04-05T16:59:26.310Z,22.55
2023-04-05T17:01:53.541Z,23.31
2023-04-05T17:04:20.405Z,22.50
2023-04-05T17:06:47.268Z,24.66
2023-04-05T17:09:14.138Z,24.21
2023-04-05T17:11:41.101Z,24.22
2023-04-05T17:14:08.226Z,23.86
2023-04-05T17:16:35.303Z,23.74
2023-04-05T17:19:02.375Z,23.71
2023-04-05T17:21:29.971Z,23.98
2023-04-05T17:23:56.798Z,24.09
2023-04-05T17:26:24.100Z,24.97
2023-04-05T17:28:50.952Z,26.16
2023-04-05T17:31:19.950Z,25.58
2023-04-05T17:33:48.997Z,25.47
2023-04-05T17:36:16.851Z,25.26
2023-04-05T17:38:44.662Z,25.66
2023-04-05T17:41:11.952Z,25.85
2023-04-05T17:43:38.980Z,25.66
2023-04-05T17:46:05.929Z,27.53
2023-04-05T17:48:33.060Z,29.38
2023-04-05T17:51:06.320Z,29.01
2023-04-05T17:53:34.211Z,28.72
2023-04-05T17:56:01.809Z,28.51
2023-04-05T17:58:32.557Z,28.26
2023-04-05T18:01:00.288Z,28.92
2023-04-05T18:03:27.966Z,29.36
2023-04-05T18:05:55.835Z,29.22
2023-04-05T18:08:23.973Z,30.61
2023-04-05T18:10:56.772Z,30.77
2023-04-05T18:13:24.214Z,30.86
2023-04-05T18:15:55.299Z,31.40
2023-04-05T18:18:22.772Z,28.71
2023-04-05T18:20:51.702Z,30.32
2023-04-05T18:23:19.407Z,30.48
2023-04-05T18:25:46.378Z,31.06
2023-04-05T18:28:22.373Z,31.04
2023-04-05T18:30:51.336Z,30.83
2023-04-05T18:33:19.287Z,30.88
2023-04-05T18:35:52.629Z,29.24
2023-04-05T18:38:21.932Z,28.64
2023-04-05T18:40:49.850Z,28.72
2023-04-05T18:43:17.066Z,31.46
2023-04-05T18:45:44.120Z,31.59
2023-04-05T18:48:11.522Z,31.62
2023-04-05T18:50:38.468Z,31.14
2023-04-05T18:53:07.001Z,31.75
2023-04-05T18:55:34.509Z,32.25
2023-04-05T18:58:02.760Z,31.59
2023-04-05T19:00:29.887Z,31.09
2023-04-05T19:02:57.250Z,32.11
2023-04-05T19:05:24.520Z,30.03
2023-04-05T19:07:51.401Z,29.25
2023-04-05T19:10:18.260Z,31.49
2023-04-05T19:12:45.410Z,31.03
2023-04-05T19:15:12.325Z,30.86
2023-04-05T19:17:39.404Z,29.80
2023-04-05T19:20:07.066Z,30.21
2023-04-05T19:22:34.055Z,29.93
2023-04-05T19:25:03.682Z,30.39
2023-04-05T19:27:35.799Z,30.54
2023-04-05T19:30:06.644Z,31.27
2023-04-05T19:32:33.623Z,29.47
2023-04-05T19:35:01.089Z,31.52
2023-04-05T19:37:29.486Z,30.98
2023-04-05T19:39:56.407Z,29.04
2023-04-05T19:42:23.502Z,30.84
2023-04-05T19:44:55.452Z,33.44
2023-04-05T19:47:22.301Z,34.42
2023-04-05T19:49:52.511Z,31.22
2023-04-05T19:52:48.299Z,32.90
2023-04-05T19:55:37.659Z,33.12
2023-04-05T19:58:09.174Z,30.69
2023-04-05T20:00:52.148Z,30.11
2023-04-05T20:03:31.159Z,30.87
2023-04-05T20:06:12.197Z,34.58
2023-04-05T20:08:44.425Z,30.18
2023-04-05T20:11:12.557Z,33.13
2023-04-05T20:13:45.440Z,36.13
2023-04-05T20:16:13.540Z,34.58
2023-04-05T20:18:44.900Z,30.97
2023-04-05T20:21:12.285Z,31.02
2023-04-05T20:23:41.075Z,29.96
2023-04-05T20:26:08.112Z,31.59
2023-04-05T20:28:41.597Z,34.76
2023-04-05T20:31:20.903Z,37.98
2023-04-05T20:33:52.086Z,36.27
2023-04-05T20:36:22.221Z,32.03
2023-04-05T20:38:50.767Z,30.47
2023-04-05T20:41:19.432Z,29.69
2023-04-05T20:43:47.285Z,29.70
2023-04-05T20:46:16.073Z,32.05
2023-04-05T20:48:43.884Z,34.29
2023-04-05T20:51:14.128Z,33.78
2023-04-05T20:53:41.360Z,32.13
2023-04-05T20:56:09.566Z,31.06
2023-04-05T20:58:38.433Z,30.62
2023-04-05T21:01:07.640Z,32.61
2023-04-05T21:03:37.122Z,31.34
2023-04-05T21:06:05.803Z,35.04
2023-04-05T21:08:32.908Z,32.14
2023-04-05T21:11:00.158Z,32.13
2023-04-05T21:13:27.029Z,31.91
2023-04-05T21:15:57.963Z,32.01
2023-04-05T21:18:25.746Z,34.39
2023-04-05T21:20:54.016Z,32.12
2023-04-05T21:23:28.432Z,32.08
2023-04-05T21:25:56.399Z,31.48
2023-04-05T21:28:24.426Z,31.53
2023-04-05T21:30:52.505Z,33.57
2023-04-05T21:33:20.142Z,31.28
2023-04-05T21:35:47.323Z,30.83
2023-04-05T21:38:15.852Z,33.36
2023-04-05T21:40:44.745Z,36.51
2023-04-05T21:43:13.292Z,33.30
2023-04-05T21:45:40.372Z,32.97
2023-04-05T21:48:08.019Z,32.24
2023-04-05T21:50:35.558Z,32.90
2023-04-05T21:53:03.117Z,32.14
2023-04-05T21:55:30.165Z,32.19
2023-04-05T21:57:57.050Z,34.47
2023-04-05T22:00:24.043Z,35.36
2023-04-05T22:02:51.778Z,35.43
2023-04-05T22:05:33.933Z,33.35
2023-04-05T22:08:03.725Z,32.59
2023-04-05T22:10:30.694Z,33.22
2023-04-05T22:12:57.559Z,33.24
2023-04-05T22:15:24.448Z,31.18
2023-04-05T22:17:52.111Z,31.74
2023-04-05T22:20:19.020Z,32.85
2023-04-05T22:22:45.844Z,32.40
2023-04-05T22:25:12.758Z,33.00
2023-04-05T22:27:39.648Z,32.14
2023-04-05T22:30:08.483Z,33.72
2023-04-05T22:32:35.985Z,31.71
2023-04-05T22:35:04.697Z,32.35
2023-04-05T22:37:35.954Z,32.74
2023-04-05T22:40:04.674Z,31.67
2023-04-05T22:42:32.026Z,35.32
2023-04-05T22:44:58.923Z,36.89
2023-04-05T22:47:26.438Z,33.83
2023-04-05T22:49:53.763Z,32.89
2023-04-05T22:52:21.406Z,32.37
2023-04-05T22:54:48.583Z,32.74
2023-04-05T22:57:15.887Z,36.32
2023-04-05T22:59:43.106Z,38.56
2023-04-05T23:02:12.409Z,34.87
2023-04-05T23:04:39.581Z,34.85
2023-04-05T23:07:07.348Z,33.37
2023-04-05T23:09:34.265Z,37.64
2023-04-05T23:12:01.626Z,34.73
2023-04-05T23:14:28.469Z,31.74
2023-04-05T23:16:55.606Z,31.87
2023-04-05T23:19:23.469Z,32.10
2023-04-05T23:21:50.358Z,32.65
2023-04-05T23:24:17.367Z,32.70
2023-04-05T23:26:44.204Z,31.64
2023-04-05T23:29:11.261Z,36.60
2023-04-05T23:31:39.364Z,39.19
2023-04-05T23:34:06.365Z,34.23
2023-04-05T23:36:34.209Z,34.41
2023-04-05T23:39:01.377Z,35.58
2023-04-05T23:41:28.413Z,36.52
2023-04-05T23:43:55.532Z,35.09
2023-04-05T23:46:23.764Z,38.41
2023-04-05T23:48:50.666Z,37.26
2023-04-05T23:51:17.728Z,37.80
2023-04-05T23:53:44.568Z,38.54
2023-04-05T23:56:11.485Z,36.43
2023-04-05T23:58:42.254Z,34.72
